createdAt,value
2022-07-29T00:01:44.233Z,64.03
2022-07-29T00:04:14.128Z,63.63
2022-07-29T00:06:42.829Z,63.88
2022-07-29T00:09:11.311Z,64.38
2022-07-29T00:11:39.446Z,64.69
2022-07-29T00:14:08.193Z,64.74
2022-07-29T00:16:36.787Z,65.13
2022-07-29T00:19:05.236Z,66.09
2022-07-29T00:21:36.090Z,66.22
2022-07-29T00:24:04.655Z,66.33
2022-07-29T00:26:33.790Z,66.46
2022-07-29T00:29:32.642Z,66.79
2022-07-29T00:31:52.887Z,66.87
2022-07-29T00:34:39.975Z,66.93
2022-07-29T00:37:08.543Z,66.84
2022-07-29T00:39:36.636Z,66.79
2022-07-29T00:42:06.150Z,66.58
2022-07-29T00:44:42.501Z,66.53
2022-07-29T00:47:12.626Z,66.58
2022-07-29T00:49:42.320Z,66.19
2022-07-29T00:52:12.213Z,66.16
2022-07-29T00:54:44.595Z,66.12
2022-07-29T00:57:13.642Z,66.39
2022-07-29T00:59:42.087Z,66.98
2022-07-29T01:02:10.447Z,67.50
2022-07-29T01:04:38.957Z,68.04
2022-07-29T01:07:08.355Z,68.01
2022-07-29T01:09:45.981Z,68.24
2022-07-29T01:12:23.592Z,68.28
2022-07-29T01:14:53.385Z,68.18
2022-07-29T01:17:29.937Z,68.16
2022-07-29T01:20:07.629Z,68.53
2022-07-29T01:22:35.698Z,68.37
2022-07-29T01:25:19.865Z,68.05
2022-07-29T01:28:13.136Z,67.21
2022-07-29T01:30:46.017Z,66.46
2022-07-29T01:33:37.384Z,66.04
2022-07-29T01:36:13.165Z,66.47
2022-07-29T01:38:44.157Z,66.80
2022-07-29T01:41:18.695Z,66.92
2022-07-29T01:44:02.630Z,66.25
2022-07-29T01:46:36.009Z,66.12
2022-07-29T01:49:16.285Z,65.79
2022-07-29T01:52:01.199Z,65.66
2022-07-29T01:54:32.545Z,66.20
2022-07-29T01:57:02.925Z,66.96
2022-07-29T01:59:32.925Z,67.31
2022-07-29T02:02:03.057Z,67.51
2022-07-29T02:04:34.985Z,67.28
2022-07-29T02:07:07.110Z,67.39
2022-07-29T02:09:38.019Z,68.17
2022-07-29T02:12:08.643Z,68.53
2022-07-29T02:14:43.997Z,69.03
2022-07-29T02:17:14.624Z,69.17
2022-07-29T02:19:46.078Z,69.37
2022-07-29T02:22:15.930Z,69.57
2022-07-29T02:24:45.548Z,69.61
2022-07-29T02:27:15.551Z,69.57
2022-07-29T02:29:46.492Z,69.63
2022-07-29T02:32:17.424Z,69.96
2022-07-29T02:34:47.791Z,70.26
2022-07-29T02:37:18.582Z,70.48
2022-07-29T02:39:50.119Z,70.50
2022-07-29T02:42:19.946Z,70.70
2022-07-29T02:44:48.662Z,70.67
2022-07-29T02:47:41.797Z,70.85
2022-07-29T02:50:18.922Z,70.96
2022-07-29T02:53:10.290Z,70.53
2022-07-29T02:55:43.516Z,69.71
2022-07-29T02:58:29.717Z,70.00
2022-07-29T03:01:04.426Z,70.44
2022-07-29T03:03:38.493Z,70.07
2022-07-29T03:06:08.736Z,69.37
2022-07-29T03:08:59.070Z,69.78
2022-07-29T03:11:42.302Z,70.70
2022-07-29T03:14:19.516Z,71.22
2022-07-29T03:16:49.008Z,71.46
2022-07-29T03:19:18.584Z,71.28
2022-07-29T03:21:47.599Z,71.19
2022-07-29T03:24:30.432Z,70.92
2022-07-29T03:26:59.130Z,70.86
2022-07-29T03:29:33.576Z,71.27
2022-07-29T03:32:07.900Z,71.69
2022-07-29T03:34:38.856Z,71.91
2022-07-29T03:37:08.002Z,71.64
2022-07-29T03:39:42.622Z,71.58
2022-07-29T03:42:15.273Z,71.68
2022-07-29T03:44:47.033Z,71.76
2022-07-29T03:47:18.792Z,71.90
2022-07-29T03:49:53.317Z,70.78
2022-07-29T03:52:22.939Z,70.06
2022-07-29T03:54:51.734Z,69.39
2022-07-29T03:57:25.035Z,69.41
2022-07-29T03:59:54.749Z,69.54
2022-07-29T04:02:28.705Z,69.91
2022-07-29T04:04:59.095Z,70.22
2022-07-29T04:07:27.655Z,70.14
2022-07-29T04:09:55.941Z,69.75
2022-07-29T04:12:24.261Z,69.61
2022-07-29T04:14:52.490Z,69.36
2022-07-29T04:17:20.679Z,69.03
2022-07-29T04:19:48.950Z,69.18
2022-07-29T04:22:17.217Z,69.38
2022-07-29T04:24:45.508Z,69.40
2022-07-29T04:27:13.881Z,69.20
2022-07-29T04:29:57.032Z,69.15
2022-07-29T04:32:27.348Z,68.83
2022-07-29T04:34:55.510Z,69.11
2022-07-29T04:37:23.788Z,68.99
2022-07-29T04:39:52.102Z,68.93
2022-07-29T04:42:27.419Z,68.98
2022-07-29T04:44:55.932Z,68.44
2022-07-29T04:47:24.763Z,68.35
2022-07-29T04:49:52.963Z,68.23
2022-07-29T04:52:21.239Z,67.96
2022-07-29T04:54:50.227Z,67.81
2022-07-29T04:57:18.544Z,67.35
2022-07-29T04:59:46.887Z,67.35
2022-07-29T05:02:15.406Z,67.26
2022-07-29T05:04:44.166Z,67.58
2022-07-29T05:07:12.338Z,68.04
2022-07-29T05:09:40.621Z,67.80
2022-07-29T05:16:41.495Z,67.66
2022-07-29T05:19:13.805Z,67.88
2022-07-29T05:21:42.652Z,67.97
2022-07-29T05:24:11.465Z,68.15
2022-07-29T05:35:39.004Z,67.58
2022-07-29T05:38:07.255Z,66.93
2022-07-29T05:40:35.851Z,66.48
2022-07-29T05:43:04.274Z,66.25
2022-07-29T05:45:32.708Z,65.82
2022-07-29T05:48:01.134Z,65.26
2022-07-29T05:50:29.600Z,64.88
2022-07-29T05:52:58.056Z,64.73
2022-07-29T05:55:26.635Z,64.13
2022-07-29T05:57:55.119Z,64.19
2022-07-29T06:00:23.742Z,63.88
2022-07-29T06:02:52.598Z,63.35
2022-07-29T06:05:21.183Z,63.39
2022-07-29T06:07:50.661Z,63.42
2022-07-29T06:10:20.301Z,63.04
2022-07-29T06:12:52.304Z,62.62
2022-07-29T06:15:20.676Z,62.13
2022-07-29T06:17:59.685Z,61.98
2022-07-29T06:20:31.536Z,62.11
2022-07-29T06:23:00.976Z,61.70
2022-07-29T06:25:33.440Z,61.21
2022-07-29T06:28:02.527Z,61.12
2022-07-29T06:30:30.955Z,61.26
2022-07-29T06:32:59.519Z,60.49
2022-07-29T06:35:41.053Z,60.39
2022-07-29T06:38:30.950Z,59.70
2022-07-29T06:41:18.486Z,59.84
2022-07-29T06:43:51.854Z,58.68
2022-07-29T06:46:23.663Z,57.65
2022-07-29T06:48:53.345Z,58.61
2022-07-29T06:51:23.836Z,58.57
2022-07-29T06:53:59.500Z,57.67
2022-07-29T06:56:39.151Z,57.41
2022-07-29T06:59:13.709Z,57.09
2022-07-29T07:01:43.136Z,56.29
2022-07-29T07:04:13.014Z,56.65
2022-07-29T07:06:41.954Z,56.75
2022-07-29T07:09:10.213Z,56.51
2022-07-29T07:11:38.488Z,57.15
2022-07-29T07:14:06.861Z,56.98
2022-07-29T07:16:35.095Z,56.91
2022-07-29T07:19:03.554Z,56.84
2022-07-29T07:21:31.792Z,56.63
2022-07-29T07:24:01.756Z,56.29
2022-07-29T07:26:30.096Z,56.28
2022-07-29T07:28:58.525Z,56.30
2022-07-29T07:31:26.940Z,56.37
2022-07-29T07:33:55.345Z,56.60
2022-07-29T07:36:24.548Z,56.01
2022-07-29T07:38:52.810Z,55.86
2022-07-29T07:41:22.823Z,55.55
2022-07-29T07:43:50.970Z,56.12
2022-07-29T07:46:19.206Z,56.08
2022-07-29T07:48:47.370Z,56.15
2022-07-29T07:51:15.518Z,56.08
2022-07-29T07:53:43.681Z,56.46
2022-07-29T07:56:12.828Z,56.32
2022-07-29T07:58:41.336Z,56.08
2022-07-29T08:01:10.756Z,55.79
2022-07-29T08:03:40.029Z,55.78
2022-07-29T08:06:08.900Z,55.20
2022-07-29T08:08:37.027Z,55.09
2022-07-29T08:11:09.542Z,54.47
2022-07-29T08:13:39.631Z,54.28
2022-07-29T08:16:16.718Z,54.16
2022-07-29T08:18:46.578Z,54.05
2022-07-29T08:21:16.455Z,54.11
2022-07-29T08:23:59.703Z,53.62
2022-07-29T08:26:28.998Z,53.45
2022-07-29T08:28:57.228Z,52.98
2022-07-29T08:31:25.626Z,52.16
2022-07-29T08:33:53.982Z,52.03
2022-07-29T08:40:55.394Z,51.65
2022-07-29T08:43:24.225Z,51.13
2022-07-29T08:45:53.182Z,50.76
2022-07-29T08:48:23.848Z,50.49
2022-07-29T08:50:57.094Z,50.66
2022-07-29T08:53:28.454Z,49.86
2022-07-29T08:55:57.231Z,49.66
2022-07-29T08:58:26.875Z,49.43
2022-07-29T09:00:57.987Z,49.50
2022-07-29T09:03:31.758Z,49.14
2022-07-29T09:06:00.492Z,48.41
2022-07-29T09:08:29.312Z,47.89
2022-07-29T09:10:57.471Z,47.37
2022-07-29T09:13:26.010Z,46.62
2022-07-29T09:15:55.060Z,46.34
2022-07-29T09:18:43.431Z,45.49
2022-07-29T09:21:34.258Z,43.64
2022-07-29T09:24:11.568Z,43.85
2022-07-29T09:26:47.258Z,43.37
2022-07-29T09:29:17.811Z,42.05
2022-07-29T09:31:48.187Z,41.45
2022-07-29T09:34:29.578Z,41.57
2022-07-29T09:36:58.426Z,41.52
2022-07-29T09:39:47.363Z,41.32
2022-07-29T09:42:29.349Z,41.58
2022-07-29T09:44:57.607Z,42.32
2022-07-29T09:47:42.275Z,43.09
2022-07-29T09:54:29.218Z,43.53
2022-07-29T09:56:57.481Z,44.31
2022-07-29T09:59:27.588Z,44.96
2022-07-29T10:01:56.644Z,45.71
2022-07-29T10:04:25.157Z,45.64
2022-07-29T10:07:04.740Z,46.03
2022-07-29T10:09:35.216Z,46.05
2022-07-29T10:12:14.776Z,45.95
2022-07-29T10:14:43.966Z,45.79
2022-07-29T10:17:12.355Z,45.61
2022-07-29T10:19:40.988Z,45.68
2022-07-29T10:22:11.414Z,45.48
2022-07-29T10:24:40.286Z,45.87
2022-07-29T10:27:10.308Z,46.44
2022-07-29T10:29:38.570Z,46.25
2022-07-29T10:32:09.563Z,46.34
2022-07-29T10:35:15.485Z,46.35
2022-07-29T10:37:56.966Z,46.76
2022-07-29T10:41:32.232Z,46.91
2022-07-29T10:44:23.253Z,46.59
2022-07-29T10:46:53.420Z,46.82
2022-07-29T10:49:30.305Z,46.97
2022-07-29T10:52:06.568Z,47.44
2022-07-29T10:54:37.802Z,47.86
2022-07-29T10:57:53.227Z,48.57
2022-07-29T11:00:16.904Z,49.08
2022-07-29T11:02:50.186Z,49.15
2022-07-29T11:05:20.812Z,49.21
2022-07-29T11:08:12.489Z,49.11
2022-07-29T11:10:50.556Z,49.26
2022-07-29T11:13:49.360Z,49.38
2022-07-29T11:16:20.117Z,49.35
2022-07-29T11:19:11.412Z,49.45
2022-07-29T11:21:54.145Z,49.45
2022-07-29T11:24:35.936Z,49.10
2022-07-29T11:27:19.925Z,49.28
2022-07-29T11:29:55.542Z,49.31
2022-07-29T11:32:29.199Z,49.63
2022-07-29T11:35:17.208Z,50.48
2022-07-29T11:37:52.735Z,51.49
2022-07-29T11:40:26.224Z,52.25
2022-07-29T11:42:55.062Z,52.62
2022-07-29T11:45:42.534Z,53.11
2022-07-29T11:51:13.322Z,54.30
2022-07-29T11:53:48.010Z,55.09
2022-07-29T11:56:25.742Z,56.51
2022-07-29T11:59:08.597Z,57.47
2022-07-29T12:01:37.329Z,58.34
2022-07-29T12:04:07.805Z,59.37
2022-07-29T12:06:36.435Z,60.49
2022-07-29T12:09:11.245Z,61.64
2022-07-29T12:11:47.332Z,62.12
2022-07-29T12:14:30.289Z,62.40
2022-07-29T12:16:59.741Z,62.82
2022-07-29T12:19:28.603Z,63.20
2022-07-29T12:22:02.241Z,63.60
2022-07-29T12:24:44.887Z,63.55
2022-07-29T12:27:13.239Z,63.55
2022-07-29T12:29:46.298Z,63.52
2022-07-29T12:32:19.483Z,63.54
2022-07-29T12:34:48.751Z,63.28
2022-07-29T12:37:17.658Z,63.09
2022-07-29T12:39:46.611Z,63.00
2022-07-29T12:42:18.461Z,62.66
2022-07-29T12:44:49.110Z,62.39
2022-07-29T12:47:19.320Z,62.50
2022-07-29T12:49:49.050Z,62.65
2022-07-29T12:52:27.560Z,62.55
2022-07-29T12:54:56.043Z,62.11
2022-07-29T12:57:25.243Z,62.68
2022-07-29T13:00:04.897Z,62.55
2022-07-29T13:02:33.331Z,62.52
2022-07-29T13:05:03.407Z,63.25
2022-07-29T13:08:29.574Z,63.69
2022-07-29T13:10:24.073Z,63.29
2022-07-29T13:13:16.573Z,63.05
2022-07-29T13:15:48.626Z,62.31
2022-07-29T13:18:34.949Z,62.37
2022-07-29T13:21:18.841Z,62.02
2022-07-29T13:23:47.397Z,61.54
2022-07-29T13:26:19.532Z,61.55
2022-07-29T13:28:47.835Z,61.41
2022-07-29T13:31:16.362Z,61.26
2022-07-29T13:33:44.694Z,61.49
2022-07-29T13:36:13.057Z,61.38
2022-07-29T13:38:41.225Z,61.40
2022-07-29T13:41:09.612Z,61.23
2022-07-29T13:43:38.921Z,61.22
2022-07-29T13:46:07.058Z,61.00
2022-07-29T13:48:35.607Z,61.29
2022-07-29T13:51:04.061Z,60.93
2022-07-29T13:53:32.437Z,60.79
2022-07-29T13:56:01.124Z,60.57
2022-07-29T13:58:29.499Z,60.58
2022-07-29T14:00:58.364Z,60.41
2022-07-29T14:03:26.984Z,60.49
2022-07-29T14:05:55.912Z,60.47
2022-07-29T14:08:24.211Z,60.37
2022-07-29T14:10:52.425Z,60.41
2022-07-29T14:13:25.245Z,60.36
2022-07-29T14:15:54.214Z,60.89
2022-07-29T14:18:22.585Z,61.69
2022-07-29T14:20:52.219Z,63.05
2022-07-29T14:23:20.515Z,63.28
2022-07-29T14:25:49.453Z,63.73
2022-07-29T14:28:18.080Z,63.97
2022-07-29T14:30:46.450Z,64.25
2022-07-29T14:33:15.448Z,64.72
2022-07-29T14:35:43.944Z,65.12
2022-07-29T14:38:12.504Z,66.04
2022-07-29T14:40:40.776Z,66.47
2022-07-29T14:43:10.210Z,66.91
2022-07-29T14:45:38.693Z,67.78
2022-07-29T14:48:07.501Z,68.03
2022-07-29T14:50:36.163Z,68.02
2022-07-29T14:53:04.844Z,68.58
2022-07-29T14:55:33.130Z,69.12
2022-07-29T14:58:08.945Z,69.44
2022-07-29T15:00:40.644Z,69.69
2022-07-29T15:03:11.647Z,69.07
2022-07-29T15:05:40.356Z,69.04
2022-07-29T15:08:09.304Z,68.82
2022-07-29T15:10:39.300Z,69.02
2022-07-29T15:13:07.543Z,69.64
2022-07-29T15:15:35.647Z,69.64
2022-07-29T15:18:04.181Z,69.68
2022-07-29T15:20:32.350Z,70.18
2022-07-29T15:23:00.481Z,69.85
2022-07-29T15:25:28.730Z,69.33
2022-07-29T15:28:01.354Z,69.20
2022-07-29T15:30:34.407Z,68.39
2022-07-29T15:33:04.595Z,67.60
2022-07-29T15:35:33.650Z,67.66
2022-07-29T15:38:09.688Z,67.78
2022-07-29T15:40:42.338Z,67.59
2022-07-29T15:43:10.788Z,67.00
2022-07-29T15:46:06.768Z,66.34
2022-07-29T15:48:39.496Z,66.54
2022-07-29T15:51:07.936Z,65.72
2022-07-29T15:53:36.055Z,65.97
2022-07-29T15:56:04.703Z,66.20
2022-07-29T15:58:32.982Z,66.05
2022-07-29T16:01:01.311Z,65.46
2022-07-29T16:03:29.804Z,64.84
2022-07-29T16:05:58.123Z,64.57
2022-07-29T16:08:26.503Z,63.80
2022-07-29T16:10:54.878Z,63.26
2022-07-29T16:13:24.084Z,63.65
2022-07-29T16:16:02.289Z,62.97
2022-07-29T16:18:31.083Z,62.34
2022-07-29T16:20:59.258Z,62.50
2022-07-29T16:23:27.547Z,62.27
2022-07-29T16:26:00.848Z,62.21
2022-07-29T16:28:31.075Z,62.01
2022-07-29T16:30:59.875Z,62.49
2022-07-29T16:33:28.946Z,62.70
2022-07-29T16:36:18.527Z,62.95
2022-07-29T16:38:47.637Z,63.19
2022-07-29T16:41:16.105Z,63.24
2022-07-29T16:43:44.573Z,63.53
2022-07-29T16:46:18.496Z,64.06
2022-07-29T16:48:48.691Z,63.60
2022-07-29T16:51:17.205Z,64.02
2022-07-29T16:53:45.809Z,64.60
2022-07-29T16:56:18.280Z,64.82
2022-07-29T16:58:46.541Z,65.43
2022-07-29T17:01:15.036Z,64.55
2022-07-29T17:04:02.224Z,64.39
2022-07-29T17:06:30.646Z,64.60
2022-07-29T17:08:59.013Z,64.94
2022-07-29T17:11:52.498Z,64.59
2022-07-29T17:14:15.942Z,65.12
2022-07-29T17:17:00.340Z,64.99
2022-07-29T17:19:31.145Z,64.35
2022-07-29T17:22:07.030Z,64.91
2022-07-29T17:24:38.953Z,65.11
2022-07-29T17:27:09.898Z,64.69
2022-07-29T17:29:39.300Z,64.71
2022-07-29T17:32:09.317Z,65.43
2022-07-29T17:34:39.342Z,65.63
2022-07-29T17:37:10.801Z,65.67
2022-07-29T17:39:41.395Z,65.88
2022-07-29T17:42:13.391Z,65.57
2022-07-29T17:44:42.802Z,65.57
2022-07-29T17:47:15.951Z,65.82
2022-07-29T17:49:46.125Z,66.08
2022-07-29T17:52:14.389Z,66.69
2022-07-29T17:54:42.585Z,67.05
2022-07-29T17:57:10.690Z,67.38
2022-07-29T17:59:38.924Z,67.44
2022-07-29T18:02:07.552Z,67.21
2022-07-29T18:04:35.779Z,67.05
2022-07-29T18:07:04.199Z,67.37
2022-07-29T18:09:32.550Z,67.78
2022-07-29T18:12:00.830Z,67.72
2022-07-29T18:14:29.023Z,67.59
2022-07-29T18:16:57.535Z,67.26
2022-07-29T18:19:25.950Z,66.88
2022-07-29T18:21:56.572Z,66.96
2022-07-29T18:24:27.956Z,66.96
2022-07-29T18:26:56.921Z,67.06
2022-07-29T18:29:25.646Z,67.38
2022-07-29T18:31:53.827Z,67.25
2022-07-29T18:34:22.319Z,67.01
2022-07-29T18:36:50.460Z,67.06
2022-07-29T18:39:21.186Z,67.03
2022-07-29T18:41:52.795Z,66.94
2022-07-29T18:44:22.732Z,67.01
2022-07-29T18:46:52.675Z,67.32
2022-07-29T18:49:21.756Z,67.40
2022-07-29T18:51:50.685Z,67.52
2022-07-29T18:54:19.878Z,68.19
2022-07-29T18:56:48.700Z,68.63
2022-07-29T18:59:22.656Z,68.48
2022-07-29T19:01:51.697Z,67.66
2022-07-29T19:04:20.088Z,67.33
2022-07-29T19:06:48.534Z,67.32
2022-07-29T19:09:17.747Z,67.51
2022-07-29T19:11:46.246Z,67.66
2022-07-29T19:14:14.509Z,68.03
2022-07-29T19:16:42.778Z,68.71
2022-07-29T19:19:11.061Z,68.62
2022-07-29T19:21:39.343Z,68.17
2022-07-29T19:24:12.310Z,68.48
2022-07-29T19:26:46.985Z,68.26
2022-07-29T19:29:16.155Z,68.16
2022-07-29T19:31:44.453Z,68.25
2022-07-29T19:34:13.042Z,68.45
2022-07-29T19:36:42.119Z,68.75
2022-07-29T19:39:10.618Z,68.82
2022-07-29T19:41:39.021Z,68.84
2022-07-29T19:44:07.088Z,69.06
2022-07-29T19:46:35.698Z,69.39
2022-07-29T19:49:06.836Z,69.17
2022-07-29T19:51:35.273Z,69.30
2022-07-29T19:54:03.774Z,69.15
2022-07-29T19:56:32.231Z,69.51
2022-07-29T19:59:01.802Z,69.41
2022-07-29T20:01:32.387Z,69.36
2022-07-29T20:04:00.958Z,69.41
2022-07-29T20:06:29.295Z,69.73
2022-07-29T20:08:58.990Z,69.61
2022-07-29T20:11:29.849Z,69.86
2022-07-29T20:13:58.267Z,69.84
2022-07-29T20:16:26.706Z,69.57
2022-07-29T20:18:55.140Z,69.58
2022-07-29T20:21:23.281Z,69.99
2022-07-29T20:23:51.510Z,70.17
2022-07-29T20:26:20.076Z,70.00
2022-07-29T20:28:49.593Z,70.26
2022-07-29T20:31:19.256Z,70.57
2022-07-29T20:33:48.692Z,70.77
2022-07-29T20:36:17.291Z,71.21
2022-07-29T20:38:45.557Z,71.18
2022-07-29T20:41:14.481Z,71.39
2022-07-29T20:43:43.546Z,71.46
2022-07-29T20:46:11.883Z,72.41
2022-07-29T20:48:41.113Z,73.20
2022-07-29T20:51:09.411Z,73.31
2022-07-29T20:53:40.043Z,72.86
2022-07-29T20:56:08.746Z,72.91
2022-07-29T20:58:37.011Z,73.31
2022-07-29T21:01:06.366Z,73.55
2022-07-29T21:03:34.717Z,73.62
2022-07-29T21:06:03.793Z,73.78
2022-07-29T21:08:32.404Z,73.81
2022-07-29T21:11:00.760Z,74.05
2022-07-29T21:13:28.808Z,74.16
2022-07-29T21:16:04.265Z,74.23
2022-07-29T21:18:37.586Z,73.99
2022-07-29T21:21:06.051Z,74.38
2022-07-29T21:23:34.681Z,74.59
2022-07-29T21:26:04.272Z,74.07
2022-07-29T21:28:40.932Z,73.68
2022-07-29T21:31:16.304Z,73.50
2022-07-29T21:33:46.780Z,73.97
2022-07-29T21:36:46.847Z,74.62
2022-07-29T21:39:07.291Z,74.63
2022-07-29T21:41:36.011Z,74.25
2022-07-29T21:44:04.180Z,74.59
2022-07-29T21:46:32.619Z,74.90
2022-07-29T21:49:00.959Z,75.04
2022-07-29T21:51:29.326Z,74.57
2022-07-29T21:53:57.942Z,74.42
2022-07-29T21:56:27.845Z,74.92
2022-07-29T21:58:56.415Z,74.70
2022-07-29T22:01:24.922Z,74.37
2022-07-29T22:03:53.308Z,74.64
2022-07-29T22:06:21.886Z,74.78
2022-07-29T22:08:50.145Z,75.16
2022-07-29T22:11:18.829Z,75.42
2022-07-29T22:13:48.862Z,75.13
2022-07-29T22:16:17.842Z,74.69
2022-07-29T22:18:47.490Z,74.70
2022-07-29T22:21:15.966Z,74.93
2022-07-29T22:23:44.207Z,75.17
2022-07-29T22:26:12.728Z,75.23
2022-07-29T22:28:40.974Z,75.14
2022-07-29T22:31:09.391Z,75.26
2022-07-29T22:33:37.949Z,75.80
2022-07-29T22:36:06.834Z,75.98
2022-07-29T22:38:35.208Z,76.04
2022-07-29T22:41:03.505Z,75.90
2022-07-29T22:43:31.682Z,75.36
2022-07-29T22:45:59.987Z,75.31
2022-07-29T22:48:28.085Z,75.37
2022-07-29T22:50:56.402Z,75.55
2022-07-29T22:53:24.786Z,75.80
2022-07-29T22:55:54.903Z,76.00
2022-07-29T22:58:23.111Z,75.64
2022-07-29T23:00:51.389Z,75.56
2022-07-29T23:03:22.048Z,75.93
2022-07-29T23:05:51.943Z,76.24
2022-07-29T23:08:20.833Z,76.45
2022-07-29T23:10:49.283Z,76.53
2022-07-29T23:13:17.662Z,76.15
2022-07-29T23:15:46.043Z,76.08
2022-07-29T23:18:14.544Z,76.54
2022-07-29T23:20:43.985Z,77.13
2022-07-29T23:23:12.313Z,77.03
2022-07-29T23:25:40.705Z,76.51
2022-07-29T23:28:11.664Z,75.87
2022-07-29T23:30:42.833Z,76.04
2022-07-29T23:33:11.161Z,76.33
2022-07-29T23:35:39.554Z,76.63
2022-07-29T23:38:08.017Z,77.26
2022-07-29T23:40:36.350Z,77.77
2022-07-29T23:43:08.751Z,77.82
2022-07-29T23:45:44.650Z,77.96
2022-07-29T23:48:16.908Z,77.87
2022-07-29T23:50:45.214Z,78.10
2022-07-29T23:53:13.462Z,78.22
2022-07-29T23:55:41.738Z,78.08
2022-07-29T23:58:10.347Z,77.29
